sensor_id;sensor_type;location;lat;lon;timestamp;P1;durP1;ratioP1;P2;durP2;ratioP2
34924;SDS011;21130;51.728;8.748;2023-05-27T00:01:55;19.10;;;8.60;;
34924;SDS011;21130;51.728;8.748;2023-05-27T00:04:21;21.25;;;8.25;;
34924;SDS011;21130;51.728;8.748;2023-05-27T00:06:47;19.58;;;7.47;;
34924;SDS011;21130;51.728;8.748;2023-05-27T00:09:14;16.92;;;8.02;;
34924;SDS011;21130;51.728;8.748;2023-05-27T00:11:41;16.17;;;8.30;;
34924;SDS011;21130;51.728;8.748;2023-05-27T00:14:07;17.05;;;8.63;;
34924;SDS011;21130;51.728;8.748;2023-05-27T00:16:34;18.88;;;8.68;;
34924;SDS011;21130;51.728;8.748;2023-05-27T00:19:02;23.33;;;8.35;;
34924;SDS011;21130;51.728;8.748;2023-05-27T00:21:28;20.95;;;8.57;;
34924;SDS011;21130;51.728;8.748;2023-05-27T00:23:55;23.38;;;8.38;;
34924;SDS011;21130;51.728;8.748;2023-05-27T00:26:23;17.60;;;8.07;;
34924;SDS011;21130;51.728;8.748;2023-05-27T00:28:49;17.65;;;8.85;;
34924;SDS011;21130;51.728;8.748;2023-05-27T00:31:16;15.23;;;7.95;;
34924;SDS011;21130;51.728;8.748;2023-05-27T00:33:42;13.98;;;7.38;;
34924;SDS011;21130;51.728;8.748;2023-05-27T00:36:10;20.25;;;7.82;;
34924;SDS011;21130;51.728;8.748;2023-05-27T00:38:37;17.25;;;8.00;;
34924;SDS011;21130;51.728;8.748;2023-05-27T00:41:03;20.92;;;7.72;;
34924;SDS011;21130;51.728;8.748;2023-05-27T00:43:31;17.05;;;7.93;;
34924;SDS011;21130;51.728;8.748;2023-05-27T00:45:57;18.40;;;8.02;;
34924;SDS011;21130;51.728;8.748;2023-05-27T00:48:24;17.15;;;7.63;;
34924;SDS011;21130;51.728;8.748;2023-05-27T00:50:50;18.83;;;8.63;;
34924;SDS011;21130;51.728;8.748;2023-05-27T00:53:18;21.08;;;8.55;;
34924;SDS011;21130;51.728;8.748;2023-05-27T00:55:46;17.30;;;8.32;;
34924;SDS011;21130;51.728;8.748;2023-05-27T00:58:13;20.95;;;8.23;;
34924;SDS011;21130;51.728;8.748;2023-05-27T01:00:39;20.98;;;8.68;;
34924;SDS011;21130;51.728;8.748;2023-05-27T01:03:06;12.68;;;7.55;;
34924;SDS011;21130;51.728;8.748;2023-05-27T01:05:33;14.30;;;7.78;;
34924;SDS011;21130;51.728;8.748;2023-05-27T01:08:03;19.02;;;8.25;;
34924;SDS011;21130;51.728;8.748;2023-05-27T01:10:42;19.33;;;9.05;;
34924;SDS011;21130;51.728;8.748;2023-05-27T01:13:15;19.15;;;8.73;;
34924;SDS011;21130;51.728;8.748;2023-05-27T01:15:45;19.48;;;8.43;;
34924;SDS011;21130;51.728;8.748;2023-05-27T01:18:13;16.40;;;8.63;;
34924;SDS011;21130;51.728;8.748;2023-05-27T01:20:43;19.98;;;8.90;;
34924;SDS011;21130;51.728;8.748;2023-05-27T01:23:15;18.40;;;9.05;;
34924;SDS011;21130;51.728;8.748;2023-05-27T01:25:42;20.83;;;9.07;;
34924;SDS011;21130;51.728;8.748;2023-05-27T01:28:08;16.05;;;8.52;;
34924;SDS011;21130;51.728;8.748;2023-05-27T01:30:35;20.45;;;9.73;;
34924;SDS011;21130;51.728;8.748;2023-05-27T01:33:02;17.65;;;8.43;;
34924;SDS011;21130;51.728;8.748;2023-05-27T01:35:34;18.08;;;9.38;;
34924;SDS011;21130;51.728;8.748;2023-05-27T01:38:07;19.40;;;8.77;;
34924;SDS011;21130;51.728;8.748;2023-05-27T01:40:37;23.27;;;9.13;;
34924;SDS011;21130;51.728;8.748;2023-05-27T01:43:04;19.27;;;8.77;;
34924;SDS011;21130;51.728;8.748;2023-05-27T01:45:32;19.45;;;9.20;;
34924;SDS011;21130;51.728;8.748;2023-05-27T01:48:00;16.42;;;9.18;;
34924;SDS011;21130;51.728;8.748;2023-05-27T01:50:26;15.90;;;8.93;;
34924;SDS011;21130;51.728;8.748;2023-05-27T01:52:55;20.20;;;9.65;;
34924;SDS011;21130;51.728;8.748;2023-05-27T01:55:22;13.68;;;9.05;;
34924;SDS011;21130;51.728;8.748;2023-05-27T01:57:50;18.30;;;9.80;;
34924;SDS011;21130;51.728;8.748;2023-05-27T02:00:16;19.15;;;9.32;;
34924;SDS011;21130;51.728;8.748;2023-05-27T02:02:43;17.40;;;9.68;;
34924;SDS011;21130;51.728;8.748;2023-05-27T02:05:09;21.38;;;9.23;;
34924;SDS011;21130;51.728;8.748;2023-05-27T02:07:36;18.55;;;9.80;;
34924;SDS011;21130;51.728;8.748;2023-05-27T02:10:04;21.83;;;10.10;;
34924;SDS011;21130;51.728;8.748;2023-05-27T02:12:31;20.45;;;10.20;;
34924;SDS011;21130;51.728;8.748;2023-05-27T02:14:58;19.38;;;9.60;;
34924;SDS011;21130;51.728;8.748;2023-05-27T02:17:25;23.38;;;9.95;;
34924;SDS011;21130;51.728;8.748;2023-05-27T02:19:52;18.13;;;9.35;;
34924;SDS011;21130;51.728;8.748;2023-05-27T02:22:22;23.90;;;10.50;;
34924;SDS011;21130;51.728;8.748;2023-05-27T02:24:49;25.33;;;10.93;;
34924;SDS011;21130;51.728;8.748;2023-05-27T02:27:15;18.25;;;9.82;;
34924;SDS011;21130;51.728;8.748;2023-05-27T02:29:41;25.17;;;9.45;;
34924;SDS011;21130;51.728;8.748;2023-05-27T02:32:09;20.48;;;10.32;;
34924;SDS011;21130;51.728;8.748;2023-05-27T02:34:35;21.50;;;10.73;;
34924;SDS011;21130;51.728;8.748;2023-05-27T02:37:02;18.85;;;9.80;;
34924;SDS011;21130;51.728;8.748;2023-05-27T02:39:29;19.25;;;9.77;;
34924;SDS011;21130;51.728;8.748;2023-05-27T02:41:56;20.55;;;9.80;;
34924;SDS011;21130;51.728;8.748;2023-05-27T02:44:22;19.95;;;9.50;;
34924;SDS011;21130;51.728;8.748;2023-05-27T02:46:49;20.38;;;9.80;;
34924;SDS011;21130;51.728;8.748;2023-05-27T02:49:17;20.95;;;9.82;;
34924;SDS011;21130;51.728;8.748;2023-05-27T02:51:44;22.52;;;10.75;;
34924;SDS011;21130;51.728;8.748;2023-05-27T02:54:11;18.48;;;9.90;;
34924;SDS011;21130;51.728;8.748;2023-05-27T02:56:37;25.75;;;10.25;;
34924;SDS011;21130;51.728;8.748;2023-05-27T02:59:03;25.10;;;10.68;;
34924;SDS011;21130;51.728;8.748;2023-05-27T03:01:30;16.42;;;9.40;;
34924;SDS011;21130;51.728;8.748;2023-05-27T03:03:58;18.98;;;10.15;;
34924;SDS011;21130;51.728;8.748;2023-05-27T03:06:26;22.75;;;10.38;;
34924;SDS011;21130;51.728;8.748;2023-05-27T03:08:52;21.63;;;10.77;;
34924;SDS011;21130;51.728;8.748;2023-05-27T03:11:19;20.63;;;10.07;;
34924;SDS011;21130;51.728;8.748;2023-05-27T03:13:46;20.55;;;10.70;;
34924;SDS011;21130;51.728;8.748;2023-05-27T03:16:12;26.08;;;11.23;;
34924;SDS011;21130;51.728;8.748;2023-05-27T03:18:39;22.88;;;11.48;;
34924;SDS011;21130;51.728;8.748;2023-05-27T03:21:05;25.48;;;11.90;;
34924;SDS011;21130;51.728;8.748;2023-05-27T03:23:33;23.98;;;10.88;;
34924;SDS011;21130;51.728;8.748;2023-05-27T03:25:59;23.80;;;10.48;;
34924;SDS011;21130;51.728;8.748;2023-05-27T03:28:26;28.98;;;12.15;;
34924;SDS011;21130;51.728;8.748;2023-05-27T03:30:52;24.15;;;12.25;;
34924;SDS011;21130;51.728;8.748;2023-05-27T03:33:21;27.20;;;10.68;;
34924;SDS011;21130;51.728;8.748;2023-05-27T03:35:47;25.63;;;11.63;;
34924;SDS011;21130;51.728;8.748;2023-05-27T03:38:14;23.25;;;11.55;;
34924;SDS011;21130;51.728;8.748;2023-05-27T03:40:42;23.23;;;10.93;;
34924;SDS011;21130;51.728;8.748;2023-05-27T03:43:08;17.77;;;10.57;;
34924;SDS011;21130;51.728;8.748;2023-05-27T03:45:35;26.20;;;11.20;;
34924;SDS011;21130;51.728;8.748;2023-05-27T03:51:08;20.45;;;11.38;;
34924;SDS011;21130;51.728;8.748;2023-05-27T03:53:34;23.38;;;10.60;;
34924;SDS011;21130;51.728;8.748;2023-05-27T03:56:03;20.65;;;11.00;;
34924;SDS011;21130;51.728;8.748;2023-05-27T03:58:29;28.13;;;11.02;;
34924;SDS011;21130;51.728;8.748;2023-05-27T04:00:56;23.63;;;10.90;;
34924;SDS011;21130;51.728;8.748;2023-05-27T04:03:22;24.17;;;10.95;;
34924;SDS011;21130;51.728;8.748;2023-05-27T04:05:48;20.88;;;11.48;;
34924;SDS011;21130;51.728;8.748;2023-05-27T04:08:15;26.38;;;11.73;;
34924;SDS011;21130;51.728;8.748;2023-05-27T04:10:41;29.13;;;12.18;;
34924;SDS011;21130;51.728;8.748;2023-05-27T04:13:09;23.95;;;11.80;;
34924;SDS011;21130;51.728;8.748;2023-05-27T04:15:35;21.85;;;11.57;;
34924;SDS011;21130;51.728;8.748;2023-05-27T04:18:02;21.80;;;11.00;;
34924;SDS011;21130;51.728;8.748;2023-05-27T04:20:33;23.88;;;12.68;;
34924;SDS011;21130;51.728;8.748;2023-05-27T04:23:01;25.02;;;11.57;;
34924;SDS011;21130;51.728;8.748;2023-05-27T04:25:27;22.20;;;11.90;;
34924;SDS011;21130;51.728;8.748;2023-05-27T04:27:53;23.67;;;11.05;;
34924;SDS011;21130;51.728;8.748;2023-05-27T04:30:21;25.23;;;12.40;;
34924;SDS011;21130;51.728;8.748;2023-05-27T04:32:48;22.77;;;13.85;;
34924;SDS011;21130;51.728;8.748;2023-05-27T04:35:14;26.52;;;12.82;;
34924;SDS011;21130;51.728;8.748;2023-05-27T04:37:41;24.45;;;13.63;;
34924;SDS011;21130;51.728;8.748;2023-05-27T04:40:10;26.33;;;14.20;;
34924;SDS011;21130;51.728;8.748;2023-05-27T04:42:37;24.40;;;12.40;;
34924;SDS011;21130;51.728;8.748;2023-05-27T04:45:04;27.55;;;13.05;;
34924;SDS011;21130;51.728;8.748;2023-05-27T04:47:33;26.35;;;13.88;;
34924;SDS011;21130;51.728;8.748;2023-05-27T04:50:02;26.67;;;14.35;;
34924;SDS011;21130;51.728;8.748;2023-05-27T04:52:30;28.60;;;14.98;;
34924;SDS011;21130;51.728;8.748;2023-05-27T04:55:02;28.88;;;14.75;;
34924;SDS011;21130;51.728;8.748;2023-05-27T04:57:28;29.70;;;14.55;;
34924;SDS011;21130;51.728;8.748;2023-05-27T04:59:55;33.85;;;14.13;;
34924;SDS011;21130;51.728;8.748;2023-05-27T05:02:44;31.60;;;13.43;;
34924;SDS011;21130;51.728;8.748;2023-05-27T05:05:12;26.60;;;13.95;;
34924;SDS011;21130;51.728;8.748;2023-05-27T05:07:40;25.75;;;13.00;;
34924;SDS011;21130;51.728;8.748;2023-05-27T05:10:09;28.65;;;13.35;;
34924;SDS011;21130;51.728;8.748;2023-05-27T05:12:36;27.13;;;13.13;;
34924;SDS011;21130;51.728;8.748;2023-05-27T05:15:04;27.17;;;13.27;;
34924;SDS011;21130;51.728;8.748;2023-05-27T05:17:31;32.00;;;15.48;;
34924;SDS011;21130;51.728;8.748;2023-05-27T05:19:59;32.20;;;14.88;;
34924;SDS011;21130;51.728;8.748;2023-05-27T05:22:25;31.92;;;14.00;;
34924;SDS011;21130;51.728;8.748;2023-05-27T05:24:53;29.27;;;13.35;;
34924;SDS011;21130;51.728;8.748;2023-05-27T05:27:20;31.15;;;13.93;;
34924;SDS011;21130;51.728;8.748;2023-05-27T05:29:46;33.55;;;14.13;;
34924;SDS011;21130;51.728;8.748;2023-05-27T05:32:13;29.02;;;14.15;;
34924;SDS011;21130;51.728;8.748;2023-05-27T05:34:39;31.95;;;12.80;;
34924;SDS011;21130;51.728;8.748;2023-05-27T05:37:07;26.88;;;12.10;;
34924;SDS011;21130;51.728;8.748;2023-05-27T05:39:36;21.02;;;11.02;;
34924;SDS011;21130;51.728;8.748;2023-05-27T05:42:12;22.85;;;10.75;;
34924;SDS011;21130;51.728;8.748;2023-05-27T05:44:38;19.67;;;9.85;;
34924;SDS011;21130;51.728;8.748;2023-05-27T05:47:05;20.02;;;9.57;;
34924;SDS011;21130;51.728;8.748;2023-05-27T05:49:31;21.65;;;9.25;;
34924;SDS011;21130;51.728;8.748;2023-05-27T05:51:58;18.88;;;8.32;;
34924;SDS011;21130;51.728;8.748;2023-05-27T05:54:26;15.32;;;8.27;;
34924;SDS011;21130;51.728;8.748;2023-05-27T06:06:14;17.38;;;6.88;;
34924;SDS011;21130;51.728;8.748;2023-05-27T06:08:41;15.80;;;7.15;;
34924;SDS011;21130;51.728;8.748;2023-05-27T06:11:08;17.40;;;6.80;;
34924;SDS011;21130;51.728;8.748;2023-05-27T06:13:35;17.90;;;7.45;;
34924;SDS011;21130;51.728;8.748;2023-05-27T06:16:01;20.67;;;7.50;;
34924;SDS011;21130;51.728;8.748;2023-05-27T06:18:28;14.68;;;7.28;;
34924;SDS011;21130;51.728;8.748;2023-05-27T06:20:54;19.90;;;7.22;;
34924;SDS011;21130;51.728;8.748;2023-05-27T06:23:21;16.33;;;6.50;;
34924;SDS011;21130;51.728;8.748;2023-05-27T06:25:47;16.52;;;6.47;;
34924;SDS011;21130;51.728;8.748;2023-05-27T06:28:15;12.90;;;5.97;;
34924;SDS011;21130;51.728;8.748;2023-05-27T06:30:41;18.88;;;6.47;;
34924;SDS011;21130;51.728;8.748;2023-05-27T06:33:08;15.35;;;6.47;;
34924;SDS011;21130;51.728;8.748;2023-05-27T06:35:35;15.93;;;6.47;;
34924;SDS011;21130;51.728;8.748;2023-05-27T06:38:02;16.90;;;6.70;;
34924;SDS011;21130;51.728;8.748;2023-05-27T06:40:28;18.02;;;6.97;;
34924;SDS011;21130;51.728;8.748;2023-05-27T06:42:55;17.58;;;6.30;;
34924;SDS011;21130;51.728;8.748;2023-05-27T06:45:22;15.07;;;5.95;;
34924;SDS011;21130;51.728;8.748;2023-05-27T06:47:49;12.93;;;5.57;;
34924;SDS011;21130;51.728;8.748;2023-05-27T06:50:16;14.57;;;5.40;;
34924;SDS011;21130;51.728;8.748;2023-05-27T06:52:42;10.18;;;5.30;;
34924;SDS011;21130;51.728;8.748;2023-05-27T06:55:08;13.38;;;5.40;;
34924;SDS011;21130;51.728;8.748;2023-05-27T06:57:35;12.80;;;5.07;;
34924;SDS011;21130;51.728;8.748;2023-05-27T07:00:01;12.52;;;4.95;;
34924;SDS011;21130;51.728;8.748;2023-05-27T07:02:31;14.07;;;5.32;;
34924;SDS011;21130;51.728;8.748;2023-05-27T07:04:58;19.42;;;5.45;;
34924;SDS011;21130;51.728;8.748;2023-05-27T07:07:24;15.63;;;5.05;;
34924;SDS011;21130;51.728;8.748;2023-05-27T07:09:51;12.32;;;5.15;;
34924;SDS011;21130;51.728;8.748;2023-05-27T07:12:19;14.75;;;5.00;;
34924;SDS011;21130;51.728;8.748;2023-05-27T07:14:46;14.45;;;5.45;;
34924;SDS011;21130;51.728;8.748;2023-05-27T07:17:12;14.88;;;4.55;;
34924;SDS011;21130;51.728;8.748;2023-05-27T07:19:40;16.70;;;4.50;;
34924;SDS011;21130;51.728;8.748;2023-05-27T07:22:07;11.25;;;4.40;;
34924;SDS011;21130;51.728;8.748;2023-05-27T07:24:33;10.88;;;4.53;;
34924;SDS011;21130;51.728;8.748;2023-05-27T07:27:00;12.98;;;5.20;;
34924;SDS011;21130;51.728;8.748;2023-05-27T07:29:27;13.15;;;4.70;;
34924;SDS011;21130;51.728;8.748;2023-05-27T07:31:53;14.13;;;5.00;;
34924;SDS011;21130;51.728;8.748;2023-05-27T07:34:20;11.60;;;4.75;;
34924;SDS011;21130;51.728;8.748;2023-05-27T07:36:48;15.52;;;5.40;;
34924;SDS011;21130;51.728;8.748;2023-05-27T07:39:14;10.98;;;5.05;;
34924;SDS011;21130;51.728;8.748;2023-05-27T07:41:41;11.68;;;4.40;;
34924;SDS011;21130;51.728;8.748;2023-05-27T07:44:07;16.55;;;5.53;;
34924;SDS011;21130;51.728;8.748;2023-05-27T07:46:34;10.07;;;4.43;;
34924;SDS011;21130;51.728;8.748;2023-05-27T07:49:03;14.02;;;4.93;;
34924;SDS011;21130;51.728;8.748;2023-05-27T07:51:30;14.10;;;5.13;;
34924;SDS011;21130;51.728;8.748;2023-05-27T07:53:58;12.07;;;4.68;;
34924;SDS011;21130;51.728;8.748;2023-05-27T07:56:24;14.38;;;4.60;;
34924;SDS011;21130;51.728;8.748;2023-05-27T07:58:51;8.75;;;4.00;;
34924;SDS011;21130;51.728;8.748;2023-05-27T08:01:17;11.70;;;4.75;;
34924;SDS011;21130;51.728;8.748;2023-05-27T08:03:44;13.80;;;4.93;;
34924;SDS011;21130;51.728;8.748;2023-05-27T08:06:10;13.32;;;4.43;;
34924;SDS011;21130;51.728;8.748;2023-05-27T08:08:36;15.57;;;5.00;;
34924;SDS011;21130;51.728;8.748;2023-05-27T08:11:04;12.18;;;4.88;;
34924;SDS011;21130;51.728;8.748;2023-05-27T08:13:32;14.02;;;4.97;;
34924;SDS011;21130;51.728;8.748;2023-05-27T08:15:58;12.90;;;4.70;;
34924;SDS011;21130;51.728;8.748;2023-05-27T08:18:24;14.10;;;4.95;;
34924;SDS011;21130;51.728;8.748;2023-05-27T08:20:51;12.77;;;4.70;;
34924;SDS011;21130;51.728;8.748;2023-05-27T08:23:17;12.10;;;4.65;;
34924;SDS011;21130;51.728;8.748;2023-05-27T08:25:44;11.68;;;4.53;;
34924;SDS011;21130;51.728;8.748;2023-05-27T08:28:12;11.43;;;4.65;;
34924;SDS011;21130;51.728;8.748;2023-05-27T08:30:38;11.85;;;4.38;;
34924;SDS011;21130;51.728;8.748;2023-05-27T08:33:05;11.50;;;4.60;;
34924;SDS011;21130;51.728;8.748;2023-05-27T08:35:32;12.25;;;4.70;;
34924;SDS011;21130;51.728;8.748;2023-05-27T08:37:58;13.10;;;4.38;;
34924;SDS011;21130;51.728;8.748;2023-05-27T08:40:24;11.57;;;4.50;;
34924;SDS011;21130;51.728;8.748;2023-05-27T08:42:52;15.95;;;4.72;;
34924;SDS011;21130;51.728;8.748;2023-05-27T08:45:20;14.13;;;4.53;;
34924;SDS011;21130;51.728;8.748;2023-05-27T08:47:47;9.48;;;4.45;;
34924;SDS011;21130;51.728;8.748;2023-05-27T08:50:14;13.60;;;4.72;;
34924;SDS011;21130;51.728;8.748;2023-05-27T08:52:44;14.18;;;5.72;;
34924;SDS011;21130;51.728;8.748;2023-05-27T08:55:12;13.20;;;4.93;;
34924;SDS011;21130;51.728;8.748;2023-05-27T08:57:42;14.07;;;5.13;;
34924;SDS011;21130;51.728;8.748;2023-05-27T09:00:12;11.60;;;4.53;;
34924;SDS011;21130;51.728;8.748;2023-05-27T09:02:41;13.65;;;5.15;;
34924;SDS011;21130;51.728;8.748;2023-05-27T09:05:08;14.50;;;5.30;;
34924;SDS011;21130;51.728;8.748;2023-05-27T09:07:37;9.60;;;4.60;;
34924;SDS011;21130;51.728;8.748;2023-05-27T09:10:04;12.60;;;4.97;;
34924;SDS011;21130;51.728;8.748;2023-05-27T09:12:32;13.05;;;4.90;;
34924;SDS011;21130;51.728;8.748;2023-05-27T09:15:03;10.60;;;4.63;;
34924;SDS011;21130;51.728;8.748;2023-05-27T09:17:30;11.10;;;4.90;;
34924;SDS011;21130;51.728;8.748;2023-05-27T09:19:58;11.90;;;4.80;;
34924;SDS011;21130;51.728;8.748;2023-05-27T09:22:25;10.75;;;4.90;;
34924;SDS011;21130;51.728;8.748;2023-05-27T09:24:55;11.02;;;3.92;;
34924;SDS011;21130;51.728;8.748;2023-05-27T09:27:25;11.85;;;4.50;;
34924;SDS011;21130;51.728;8.748;2023-05-27T09:29:52;13.13;;;4.60;;
34924;SDS011;21130;51.728;8.748;2023-05-27T09:32:23;11.02;;;4.38;;
34924;SDS011;21130;51.728;8.748;2023-05-27T09:34:50;10.73;;;4.38;;
34924;SDS011;21130;51.728;8.748;2023-05-27T09:37:18;10.77;;;4.25;;
34924;SDS011;21130;51.728;8.748;2023-05-27T09:39:46;10.57;;;4.10;;
34924;SDS011;21130;51.728;8.748;2023-05-27T09:42:13;8.55;;;4.43;;
34924;SDS011;21130;51.728;8.748;2023-05-27T09:44:40;7.82;;;3.78;;
34924;SDS011;21130;51.728;8.748;2023-05-27T09:47:07;10.10;;;4.38;;
34924;SDS011;21130;51.728;8.748;2023-05-27T09:49:36;13.57;;;4.80;;
34924;SDS011;21130;51.728;8.748;2023-05-27T09:52:03;10.43;;;4.22;;
34924;SDS011;21130;51.728;8.748;2023-05-27T09:54:33;11.60;;;4.55;;
34924;SDS011;21130;51.728;8.748;2023-05-27T09:57:03;11.02;;;4.57;;
34924;SDS011;21130;51.728;8.748;2023-05-27T09:59:31;9.52;;;4.30;;
34924;SDS011;21130;51.728;8.748;2023-05-27T10:01:58;9.35;;;4.45;;
34924;SDS011;21130;51.728;8.748;2023-05-27T10:04:27;9.88;;;4.30;;
34924;SDS011;21130;51.728;8.748;2023-05-27T10:06:54;11.18;;;4.43;;
34924;SDS011;21130;51.728;8.748;2023-05-27T10:09:21;13.70;;;4.53;;
34924;SDS011;21130;51.728;8.748;2023-05-27T10:11:50;9.18;;;4.38;;
34924;SDS011;21130;51.728;8.748;2023-05-27T10:14:16;10.98;;;4.38;;
34924;SDS011;21130;51.728;8.748;2023-05-27T10:16:50;8.07;;;3.90;;
34924;SDS011;21130;51.728;8.748;2023-05-27T10:19:19;13.10;;;4.63;;
34924;SDS011;21130;51.728;8.748;2023-05-27T10:21:46;10.52;;;4.05;;
34924;SDS011;21130;51.728;8.748;2023-05-27T10:24:12;9.00;;;3.75;;
34924;SDS011;21130;51.728;8.748;2023-05-27T10:26:39;7.50;;;4.03;;
34924;SDS011;21130;51.728;8.748;2023-05-27T10:29:09;7.38;;;4.30;;
34924;SDS011;21130;51.728;8.748;2023-05-27T10:31:44;9.30;;;4.10;;
34924;SDS011;21130;51.728;8.748;2023-05-27T10:34:12;12.70;;;4.35;;
34924;SDS011;21130;51.728;8.748;2023-05-27T10:36:38;8.88;;;4.15;;
34924;SDS011;21130;51.728;8.748;2023-05-27T10:39:05;9.80;;;4.05;;
34924;SDS011;21130;51.728;8.748;2023-05-27T10:41:38;9.30;;;4.10;;
34924;SDS011;21130;51.728;8.748;2023-05-27T10:44:05;7.95;;;3.97;;
34924;SDS011;21130;51.728;8.748;2023-05-27T10:46:38;9.50;;;4.00;;
34924;SDS011;21130;51.728;8.748;2023-05-27T10:49:13;10.30;;;4.43;;
34924;SDS011;21130;51.728;8.748;2023-05-27T10:51:41;12.27;;;4.13;;
34924;SDS011;21130;51.728;8.748;2023-05-27T10:54:08;10.15;;;4.25;;
34924;SDS011;21130;51.728;8.748;2023-05-27T10:56:35;10.07;;;4.07;;
34924;SDS011;21130;51.728;8.748;2023-05-27T10:59:01;8.85;;;3.80;;
34924;SDS011;21130;51.728;8.748;2023-05-27T11:01:31;7.32;;;3.60;;
34924;SDS011;21130;51.728;8.748;2023-05-27T11:04:00;9.13;;;4.28;;
34924;SDS011;21130;51.728;8.748;2023-05-27T11:06:27;8.50;;;3.92;;
34924;SDS011;21130;51.728;8.748;2023-05-27T11:08:54;9.55;;;4.30;;
34924;SDS011;21130;51.728;8.748;2023-05-27T11:11:20;8.02;;;3.90;;
34924;SDS011;21130;51.728;8.748;2023-05-27T11:13:47;8.65;;;4.50;;
34924;SDS011;21130;51.728;8.748;2023-05-27T11:16:15;8.10;;;4.00;;
34924;SDS011;21130;51.728;8.748;2023-05-27T11:18:42;10.20;;;3.95;;
34924;SDS011;21130;51.728;8.748;2023-05-27T11:21:11;8.10;;;4.10;;
34924;SDS011;21130;51.728;8.748;2023-05-27T11:23:41;9.40;;;3.72;;
34924;SDS011;21130;51.728;8.748;2023-05-27T11:26:15;8.25;;;3.83;;
34924;SDS011;21130;51.728;8.748;2023-05-27T11:28:46;8.50;;;3.85;;
34924;SDS011;21130;51.728;8.748;2023-05-27T11:31:15;9.15;;;4.18;;
34924;SDS011;21130;51.728;8.748;2023-05-27T11:33:43;7.70;;;3.72;;
34924;SDS011;21130;51.728;8.748;2023-05-27T11:36:12;9.20;;;4.47;;
34924;SDS011;21130;51.728;8.748;2023-05-27T11:38:46;7.78;;;4.13;;
34924;SDS011;21130;51.728;8.748;2023-05-27T11:41:16;8.25;;;4.10;;
34924;SDS011;21130;51.728;8.748;2023-05-27T11:43:50;11.48;;;4.22;;
34924;SDS011;21130;51.728;8.748;2023-05-27T11:46:17;7.68;;;3.80;;
34924;SDS011;21130;51.728;8.748;2023-05-27T11:48:44;9.70;;;3.70;;
34924;SDS011;21130;51.728;8.748;2023-05-27T11:51:12;10.18;;;4.10;;
34924;SDS011;21130;51.728;8.748;2023-05-27T11:53:39;6.38;;;3.20;;
34924;SDS011;21130;51.728;8.748;2023-05-27T11:56:06;6.95;;;3.30;;
34924;SDS011;21130;51.728;8.748;2023-05-27T11:58:33;6.93;;;3.80;;
34924;SDS011;21130;51.728;8.748;2023-05-27T12:01:01;7.78;;;3.33;;
34924;SDS011;21130;51.728;8.748;2023-05-27T12:03:28;8.75;;;3.85;;
34924;SDS011;21130;51.728;8.748;2023-05-27T12:05:55;7.63;;;3.75;;
34924;SDS011;21130;51.728;8.748;2023-05-27T12:08:22;8.88;;;3.92;;
34924;SDS011;21130;51.728;8.748;2023-05-27T12:10:50;7.85;;;4.00;;
34924;SDS011;21130;51.728;8.748;2023-05-27T12:13:19;8.73;;;3.58;;
34924;SDS011;21130;51.728;8.748;2023-05-27T12:15:45;7.90;;;4.00;;
34924;SDS011;21130;51.728;8.748;2023-05-27T12:18:12;8.25;;;3.70;;
34924;SDS011;21130;51.728;8.748;2023-05-27T12:20:39;7.32;;;3.67;;
34924;SDS011;21130;51.728;8.748;2023-05-27T12:23:05;6.55;;;3.53;;
34924;SDS011;21130;51.728;8.748;2023-05-27T12:25:33;7.78;;;3.88;;
34924;SDS011;21130;51.728;8.748;2023-05-27T12:27:59;6.60;;;3.53;;
34924;SDS011;21130;51.728;8.748;2023-05-27T12:30:26;8.77;;;3.60;;
34924;SDS011;21130;51.728;8.748;2023-05-27T12:32:52;6.03;;;3.65;;
34924;SDS011;21130;51.728;8.748;2023-05-27T12:35:19;9.07;;;3.72;;
34924;SDS011;21130;51.728;8.748;2023-05-27T12:37:46;9.98;;;3.92;;
34924;SDS011;21130;51.728;8.748;2023-05-27T12:40:13;6.38;;;3.88;;
34924;SDS011;21130;51.728;8.748;2023-05-27T12:42:41;9.50;;;4.38;;
34924;SDS011;21130;51.728;8.748;2023-05-27T12:45:08;9.38;;;4.32;;
34924;SDS011;21130;51.728;8.748;2023-05-27T12:47:35;9.50;;;4.03;;
34924;SDS011;21130;51.728;8.748;2023-05-27T12:50:01;8.68;;;3.30;;
34924;SDS011;21130;51.728;8.748;2023-05-27T12:52:29;5.53;;;3.50;;
34924;SDS011;21130;51.728;8.748;2023-05-27T12:54:55;7.35;;;3.83;;
34924;SDS011;21130;51.728;8.748;2023-05-27T12:57:22;8.48;;;3.42;;
34924;SDS011;21130;51.728;8.748;2023-05-27T12:59:50;6.95;;;3.55;;
34924;SDS011;21130;51.728;8.748;2023-05-27T13:02:16;8.90;;;3.70;;
34924;SDS011;21130;51.728;8.748;2023-05-27T13:04:43;7.57;;;3.53;;
34924;SDS011;21130;51.728;8.748;2023-05-27T13:07:12;7.05;;;3.35;;
34924;SDS011;21130;51.728;8.748;2023-05-27T13:09:39;9.20;;;4.18;;
34924;SDS011;21130;51.728;8.748;2023-05-27T13:12:06;8.40;;;3.80;;
34924;SDS011;21130;51.728;8.748;2023-05-27T13:14:33;5.88;;;3.25;;
34924;SDS011;21130;51.728;8.748;2023-05-27T13:17:01;6.93;;;3.67;;
34924;SDS011;21130;51.728;8.748;2023-05-27T13:19:28;6.43;;;3.55;;
34924;SDS011;21130;51.728;8.748;2023-05-27T13:21:54;7.35;;;3.85;;
34924;SDS011;21130;51.728;8.748;2023-05-27T13:24:21;8.85;;;3.78;;
34924;SDS011;21130;51.728;8.748;2023-05-27T13:26:47;5.50;;;3.60;;
34924;SDS011;21130;51.728;8.748;2023-05-27T13:29:14;6.88;;;3.42;;
34924;SDS011;21130;51.728;8.748;2023-05-27T13:31:40;6.38;;;3.33;;
34924;SDS011;21130;51.728;8.748;2023-05-27T13:34:08;7.28;;;3.33;;
34924;SDS011;21130;51.728;8.748;2023-05-27T13:36:34;6.50;;;3.58;;
34924;SDS011;21130;51.728;8.748;2023-05-27T13:39:01;7.40;;;4.13;;
34924;SDS011;21130;51.728;8.748;2023-05-27T13:41:27;8.90;;;3.50;;
34924;SDS011;21130;51.728;8.748;2023-05-27T13:43:55;8.60;;;3.60;;
34924;SDS011;21130;51.728;8.748;2023-05-27T13:46:21;7.13;;;3.65;;
34924;SDS011;21130;51.728;8.748;2023-05-27T13:48:48;7.72;;;3.33;;
34924;SDS011;21130;51.728;8.748;2023-05-27T13:51:15;6.82;;;3.42;;
34924;SDS011;21130;51.728;8.748;2023-05-27T13:53:42;5.85;;;3.60;;
34924;SDS011;21130;51.728;8.748;2023-05-27T13:56:08;8.57;;;3.45;;
34924;SDS011;21130;51.728;8.748;2023-05-27T13:58:35;7.15;;;3.70;;
34924;SDS011;21130;51.728;8.748;2023-05-27T14:01:01;8.57;;;3.85;;
34924;SDS011;21130;51.728;8.748;2023-05-27T14:03:27;6.28;;;3.13;;
34924;SDS011;21130;51.728;8.748;2023-05-27T14:05:54;8.23;;;3.72;;
34924;SDS011;21130;51.728;8.748;2023-05-27T14:08:22;9.07;;;3.78;;
34924;SDS011;21130;51.728;8.748;2023-05-27T14:10:49;7.93;;;3.40;;
34924;SDS011;21130;51.728;8.748;2023-05-27T14:13:15;7.10;;;3.58;;
34924;SDS011;21130;51.728;8.748;2023-05-27T14:15:42;7.88;;;3.53;;
34924;SDS011;21130;51.728;8.748;2023-05-27T14:18:08;6.53;;;3.28;;
34924;SDS011;21130;51.728;8.748;2023-05-27T14:26:48;7.93;;;3.20;;
34924;SDS011;21130;51.728;8.748;2023-05-27T14:29:14;6.57;;;3.40;;
34924;SDS011;21130;51.728;8.748;2023-05-27T14:31:41;6.43;;;3.38;;
34924;SDS011;21130;51.728;8.748;2023-05-27T14:34:07;5.75;;;3.38;;
34924;SDS011;21130;51.728;8.748;2023-05-27T14:36:34;6.70;;;3.33;;
34924;SDS011;21130;51.728;8.748;2023-05-27T14:39:00;5.38;;;3.13;;
34924;SDS011;21130;51.728;8.748;2023-05-27T14:41:31;6.10;;;3.35;;
34924;SDS011;21130;51.728;8.748;2023-05-27T14:43:59;7.72;;;3.83;;
34924;SDS011;21130;51.728;8.748;2023-05-27T14:46:26;7.60;;;3.35;;
34924;SDS011;21130;51.728;8.748;2023-05-27T14:48:52;4.80;;;2.90;;
34924;SDS011;21130;51.728;8.748;2023-05-27T14:51:18;7.78;;;3.55;;
34924;SDS011;21130;51.728;8.748;2023-05-27T14:53:45;6.47;;;3.75;;
34924;SDS011;21130;51.728;8.748;2023-05-27T14:56:12;6.85;;;3.42;;